sensor_id;sensor_type;location;lat;lon;timestamp;P1;durP1;ratioP1;P2;durP2;ratioP2
16845;SDS011;8539;53.188;8.696;2024-03-07T00:01:08;18.63;;;13.15;;
16845;SDS011;8539;53.188;8.696;2024-03-07T00:03:36;21.60;;;13.90;;
16845;SDS011;8539;53.188;8.696;2024-03-07T00:06:03;23.02;;;13.90;;
16845;SDS011;8539;53.188;8.696;2024-03-07T00:08:30;19.65;;;13.23;;
16845;SDS011;8539;53.188;8.696;2024-03-07T00:10:57;18.90;;;13.88;;
16845;SDS011;8539;53.188;8.696;2024-03-07T00:13:24;21.45;;;14.43;;
16845;SDS011;8539;53.188;8.696;2024-03-07T00:15:52;20.77;;;15.05;;
16845;SDS011;8539;53.188;8.696;2024-03-07T00:18:19;24.08;;;15.32;;
16845;SDS011;8539;53.188;8.696;2024-03-07T00:20:46;24.05;;;14.40;;
16845;SDS011;8539;53.188;8.696;2024-03-07T00:23:13;24.45;;;15.27;;
16845;SDS011;8539;53.188;8.696;2024-03-07T00:25:43;22.45;;;15.77;;
16845;SDS011;8539;53.188;8.696;2024-03-07T00:28:10;25.23;;;16.50;;
16845;SDS011;8539;53.188;8.696;2024-03-07T00:30:37;25.88;;;16.17;;
16845;SDS011;8539;53.188;8.696;2024-03-07T00:33:04;22.77;;;15.77;;
16845;SDS011;8539;53.188;8.696;2024-03-07T00:35:31;24.27;;;15.23;;
16845;SDS011;8539;53.188;8.696;2024-03-07T00:37:58;27.85;;;15.60;;
16845;SDS011;8539;53.188;8.696;2024-03-07T00:40:25;22.17;;;15.05;;
16845;SDS011;8539;53.188;8.696;2024-03-07T00:42:52;24.95;;;15.55;;
16845;SDS011;8539;53.188;8.696;2024-03-07T00:45:20;23.25;;;15.02;;
16845;SDS011;8539;53.188;8.696;2024-03-07T00:47:47;22.30;;;15.40;;
16845;SDS011;8539;53.188;8.696;2024-03-07T00:50:15;21.63;;;15.10;;
16845;SDS011;8539;53.188;8.696;2024-03-07T00:52:42;27.58;;;18.92;;
16845;SDS011;8539;53.188;8.696;2024-03-07T00:55:09;32.45;;;19.67;;
16845;SDS011;8539;53.188;8.696;2024-03-07T00:57:36;30.45;;;20.25;;
16845;SDS011;8539;53.188;8.696;2024-03-07T01:00:04;29.50;;;19.33;;
16845;SDS011;8539;53.188;8.696;2024-03-07T01:02:31;32.30;;;20.00;;
16845;SDS011;8539;53.188;8.696;2024-03-07T01:05:01;33.95;;;20.55;;
16845;SDS011;8539;53.188;8.696;2024-03-07T01:07:34;32.08;;;20.48;;
16845;SDS011;8539;53.188;8.696;2024-03-07T01:10:01;34.88;;;21.33;;
16845;SDS011;8539;53.188;8.696;2024-03-07T01:12:30;36.75;;;22.50;;
16845;SDS011;8539;53.188;8.696;2024-03-07T01:15:01;38.90;;;23.27;;
16845;SDS011;8539;53.188;8.696;2024-03-07T01:17:31;34.47;;;20.70;;
16845;SDS011;8539;53.188;8.696;2024-03-07T01:19:59;41.15;;;23.40;;
16845;SDS011;8539;53.188;8.696;2024-03-07T01:22:29;41.10;;;23.70;;
16845;SDS011;8539;53.188;8.696;2024-03-07T01:24:57;40.67;;;24.35;;
16845;SDS011;8539;53.188;8.696;2024-03-07T01:27:24;39.97;;;24.42;;
16845;SDS011;8539;53.188;8.696;2024-03-07T01:29:52;46.63;;;26.15;;
16845;SDS011;8539;53.188;8.696;2024-03-07T01:32:20;46.05;;;27.40;;
16845;SDS011;8539;53.188;8.696;2024-03-07T01:34:48;44.88;;;26.63;;
16845;SDS011;8539;53.188;8.696;2024-03-07T01:37:15;47.05;;;27.77;;
16845;SDS011;8539;53.188;8.696;2024-03-07T01:39:42;49.70;;;29.27;;
16845;SDS011;8539;53.188;8.696;2024-03-07T01:42:09;49.13;;;29.23;;
16845;SDS011;8539;53.188;8.696;2024-03-07T01:44:36;47.85;;;28.42;;
16845;SDS011;8539;53.188;8.696;2024-03-07T01:47:03;50.65;;;29.02;;
16845;SDS011;8539;53.188;8.696;2024-03-07T01:49:31;46.80;;;27.58;;
16845;SDS011;8539;53.188;8.696;2024-03-07T01:51:59;57.47;;;29.30;;
16845;SDS011;8539;53.188;8.696;2024-03-07T01:54:26;49.72;;;28.65;;
16845;SDS011;8539;53.188;8.696;2024-03-07T01:56:54;52.53;;;30.95;;
16845;SDS011;8539;53.188;8.696;2024-03-07T01:59:22;63.42;;;33.53;;
16845;SDS011;8539;53.188;8.696;2024-03-07T02:01:51;64.13;;;34.40;;
16845;SDS011;8539;53.188;8.696;2024-03-07T02:04:25;78.75;;;35.00;;
16845;SDS011;8539;53.188;8.696;2024-03-07T02:06:52;72.43;;;33.45;;
16845;SDS011;8539;53.188;8.696;2024-03-07T02:09:21;76.10;;;34.67;;
16845;SDS011;8539;53.188;8.696;2024-03-07T02:11:48;94.60;;;36.90;;
16845;SDS011;8539;53.188;8.696;2024-03-07T02:14:16;71.10;;;31.95;;
16845;SDS011;8539;53.188;8.696;2024-03-07T02:16:43;69.05;;;33.83;;
16845;SDS011;8539;53.188;8.696;2024-03-07T02:19:12;70.65;;;34.85;;
16845;SDS011;8539;53.188;8.696;2024-03-07T02:21:41;64.95;;;33.38;;
16845;SDS011;8539;53.188;8.696;2024-03-07T02:24:08;84.07;;;35.28;;
16845;SDS011;8539;53.188;8.696;2024-03-07T02:26:35;77.70;;;34.95;;
16845;SDS011;8539;53.188;8.696;2024-03-07T02:29:03;70.07;;;34.22;;
16845;SDS011;8539;53.188;8.696;2024-03-07T02:31:30;111.85;;;37.72;;
16845;SDS011;8539;53.188;8.696;2024-03-07T02:34:03;109.65;;;38.63;;
16845;SDS011;8539;53.188;8.696;2024-03-07T02:36:31;96.53;;;36.55;;
16845;SDS011;8539;53.188;8.696;2024-03-07T02:38:58;93.05;;;37.72;;
16845;SDS011;8539;53.188;8.696;2024-03-07T02:41:26;134.00;;;38.50;;
16845;SDS011;8539;53.188;8.696;2024-03-07T02:43:53;93.60;;;39.40;;
16845;SDS011;8539;53.188;8.696;2024-03-07T02:46:20;73.40;;;35.65;;
16845;SDS011;8539;53.188;8.696;2024-03-07T02:48:47;83.45;;;38.35;;
16845;SDS011;8539;53.188;8.696;2024-03-07T02:51:15;71.07;;;34.08;;
16845;SDS011;8539;53.188;8.696;2024-03-07T02:53:42;83.05;;;37.97;;
16845;SDS011;8539;53.188;8.696;2024-03-07T02:56:09;76.80;;;35.65;;
16845;SDS011;8539;53.188;8.696;2024-03-07T02:58:36;74.38;;;36.00;;
16845;SDS011;8539;53.188;8.696;2024-03-07T03:01:03;87.57;;;38.17;;
16845;SDS011;8539;53.188;8.696;2024-03-07T03:03:30;84.53;;;39.60;;
16845;SDS011;8539;53.188;8.696;2024-03-07T03:06:01;97.18;;;41.72;;
16845;SDS011;8539;53.188;8.696;2024-03-07T03:08:29;74.53;;;38.10;;
16845;SDS011;8539;53.188;8.696;2024-03-07T03:10:56;96.85;;;40.45;;
16845;SDS011;8539;53.188;8.696;2024-03-07T03:13:23;197.60;;;47.03;;
16845;SDS011;8539;53.188;8.696;2024-03-07T03:15:54;96.60;;;38.85;;
16845;SDS011;8539;53.188;8.696;2024-03-07T03:18:25;83.93;;;42.00;;
16845;SDS011;8539;53.188;8.696;2024-03-07T03:20:52;108.55;;;40.35;;
16845;SDS011;8539;53.188;8.696;2024-03-07T03:23:19;96.90;;;41.60;;
16845;SDS011;8539;53.188;8.696;2024-03-07T03:25:47;94.18;;;39.55;;
16845;SDS011;8539;53.188;8.696;2024-03-07T03:28:16;167.52;;;45.60;;
16845;SDS011;8539;53.188;8.696;2024-03-07T03:30:46;89.32;;;40.05;;
16845;SDS011;8539;53.188;8.696;2024-03-07T03:33:14;87.57;;;40.00;;
16845;SDS011;8539;53.188;8.696;2024-03-07T03:35:42;85.10;;;38.80;;
16845;SDS011;8539;53.188;8.696;2024-03-07T03:38:09;200.40;;;48.63;;
16845;SDS011;8539;53.188;8.696;2024-03-07T03:40:37;97.35;;;39.95;;
16845;SDS011;8539;53.188;8.696;2024-03-07T03:43:04;114.95;;;41.78;;
16845;SDS011;8539;53.188;8.696;2024-03-07T03:45:32;114.20;;;43.50;;
16845;SDS011;8539;53.188;8.696;2024-03-07T03:48:01;86.70;;;40.83;;
16845;SDS011;8539;53.188;8.696;2024-03-07T03:50:29;97.82;;;41.17;;
16845;SDS011;8539;53.188;8.696;2024-03-07T03:52:56;106.93;;;41.22;;
16845;SDS011;8539;53.188;8.696;2024-03-07T03:55:24;122.15;;;43.50;;
16845;SDS011;8539;53.188;8.696;2024-03-07T03:57:51;104.22;;;41.55;;
16845;SDS011;8539;53.188;8.696;2024-03-07T04:00:20;89.43;;;39.33;;
16845;SDS011;8539;53.188;8.696;2024-03-07T04:02:49;97.30;;;42.25;;
16845;SDS011;8539;53.188;8.696;2024-03-07T04:05:19;108.75;;;42.00;;
16845;SDS011;8539;53.188;8.696;2024-03-07T04:07:47;121.63;;;43.03;;
16845;SDS011;8539;53.188;8.696;2024-03-07T04:10:15;94.95;;;42.90;;
16845;SDS011;8539;53.188;8.696;2024-03-07T04:12:44;175.25;;;46.88;;
16845;SDS011;8539;53.188;8.696;2024-03-07T04:15:12;85.43;;;38.55;;
16845;SDS011;8539;53.188;8.696;2024-03-07T04:17:44;108.10;;;43.13;;
16845;SDS011;8539;53.188;8.696;2024-03-07T04:20:12;89.93;;;39.50;;
16845;SDS011;8539;53.188;8.696;2024-03-07T04:22:40;101.38;;;39.20;;
16845;SDS011;8539;53.188;8.696;2024-03-07T04:25:07;84.45;;;38.75;;
16845;SDS011;8539;53.188;8.696;2024-03-07T04:27:36;78.07;;;39.47;;
16845;SDS011;8539;53.188;8.696;2024-03-07T04:30:04;90.88;;;39.22;;
16845;SDS011;8539;53.188;8.696;2024-03-07T04:32:32;84.07;;;39.00;;
16845;SDS011;8539;53.188;8.696;2024-03-07T04:35:01;102.45;;;41.03;;
16845;SDS011;8539;53.188;8.696;2024-03-07T04:37:30;81.80;;;36.08;;
16845;SDS011;8539;53.188;8.696;2024-03-07T04:39:58;91.07;;;40.25;;
16845;SDS011;8539;53.188;8.696;2024-03-07T04:42:25;96.07;;;42.92;;
16845;SDS011;8539;53.188;8.696;2024-03-07T04:44:52;106.53;;;43.95;;
16845;SDS011;8539;53.188;8.696;2024-03-07T04:47:20;89.43;;;41.47;;
16845;SDS011;8539;53.188;8.696;2024-03-07T04:49:47;88.93;;;37.92;;
16845;SDS011;8539;53.188;8.696;2024-03-07T04:52:14;80.82;;;38.90;;
16845;SDS011;8539;53.188;8.696;2024-03-07T04:54:41;75.03;;;38.95;;
16845;SDS011;8539;53.188;8.696;2024-03-07T04:57:08;85.00;;;35.67;;
16845;SDS011;8539;53.188;8.696;2024-03-07T04:59:35;89.32;;;37.42;;
16845;SDS011;8539;53.188;8.696;2024-03-07T05:02:03;77.93;;;37.90;;
16845;SDS011;8539;53.188;8.696;2024-03-07T05:04:30;85.50;;;37.83;;
16845;SDS011;8539;53.188;8.696;2024-03-07T05:06:59;74.65;;;37.15;;
16845;SDS011;8539;53.188;8.696;2024-03-07T05:09:26;77.88;;;35.80;;
16845;SDS011;8539;53.188;8.696;2024-03-07T05:11:56;66.75;;;36.88;;
16845;SDS011;8539;53.188;8.696;2024-03-07T05:14:23;68.30;;;32.90;;
16845;SDS011;8539;53.188;8.696;2024-03-07T05:16:52;68.13;;;31.60;;
16845;SDS011;8539;53.188;8.696;2024-03-07T05:19:37;61.50;;;33.50;;
16845;SDS011;8539;53.188;8.696;2024-03-07T05:22:04;70.78;;;33.97;;
16845;SDS011;8539;53.188;8.696;2024-03-07T05:24:32;63.58;;;33.90;;
16845;SDS011;8539;53.188;8.696;2024-03-07T05:27:00;62.78;;;32.53;;
16845;SDS011;8539;53.188;8.696;2024-03-07T05:29:28;72.43;;;32.97;;
16845;SDS011;8539;53.188;8.696;2024-03-07T05:31:55;68.22;;;34.00;;
16845;SDS011;8539;53.188;8.696;2024-03-07T05:34:42;71.40;;;34.60;;
16845;SDS011;8539;53.188;8.696;2024-03-07T05:37:09;61.70;;;30.55;;
16845;SDS011;8539;53.188;8.696;2024-03-07T05:39:39;64.28;;;33.25;;
16845;SDS011;8539;53.188;8.696;2024-03-07T05:42:07;65.50;;;30.52;;
16845;SDS011;8539;53.188;8.696;2024-03-07T05:44:34;65.85;;;33.20;;
16845;SDS011;8539;53.188;8.696;2024-03-07T05:47:02;66.88;;;33.03;;
16845;SDS011;8539;53.188;8.696;2024-03-07T05:49:30;60.17;;;30.95;;
16845;SDS011;8539;53.188;8.696;2024-03-07T05:51:57;61.60;;;30.98;;
16845;SDS011;8539;53.188;8.696;2024-03-07T05:54:24;56.08;;;27.75;;
16845;SDS011;8539;53.188;8.696;2024-03-07T05:56:53;56.53;;;29.75;;
16845;SDS011;8539;53.188;8.696;2024-03-07T05:59:21;56.40;;;27.67;;
16845;SDS011;8539;53.188;8.696;2024-03-07T06:01:48;59.17;;;29.70;;
16845;SDS011;8539;53.188;8.696;2024-03-07T06:04:17;51.45;;;27.38;;
16845;SDS011;8539;53.188;8.696;2024-03-07T06:06:44;62.88;;;30.60;;
16845;SDS011;8539;53.188;8.696;2024-03-07T06:09:13;62.97;;;31.15;;
16845;SDS011;8539;53.188;8.696;2024-03-07T06:11:41;65.25;;;32.47;;
16845;SDS011;8539;53.188;8.696;2024-03-07T06:14:11;69.55;;;32.08;;
16845;SDS011;8539;53.188;8.696;2024-03-07T06:16:40;69.93;;;31.10;;
16845;SDS011;8539;53.188;8.696;2024-03-07T06:19:08;75.97;;;38.30;;
16845;SDS011;8539;53.188;8.696;2024-03-07T06:21:38;70.95;;;32.75;;
16845;SDS011;8539;53.188;8.696;2024-03-07T06:24:07;72.03;;;34.83;;
16845;SDS011;8539;53.188;8.696;2024-03-07T06:26:37;73.05;;;34.10;;
16845;SDS011;8539;53.188;8.696;2024-03-07T06:29:16;67.50;;;33.05;;
16845;SDS011;8539;53.188;8.696;2024-03-07T06:31:45;68.10;;;33.55;;
16845;SDS011;8539;53.188;8.696;2024-03-07T06:34:13;74.03;;;32.08;;
16845;SDS011;8539;53.188;8.696;2024-03-07T06:36:40;66.93;;;31.77;;
16845;SDS011;8539;53.188;8.696;2024-03-07T06:39:07;76.20;;;37.63;;
16845;SDS011;8539;53.188;8.696;2024-03-07T06:41:37;69.90;;;34.78;;
16845;SDS011;8539;53.188;8.696;2024-03-07T06:44:05;64.50;;;33.63;;
16845;SDS011;8539;53.188;8.696;2024-03-07T06:46:34;64.38;;;34.38;;
16845;SDS011;8539;53.188;8.696;2024-03-07T06:49:01;68.10;;;33.67;;
16845;SDS011;8539;53.188;8.696;2024-03-07T06:51:28;66.55;;;33.45;;
16845;SDS011;8539;53.188;8.696;2024-03-07T06:53:55;67.38;;;33.50;;
16845;SDS011;8539;53.188;8.696;2024-03-07T06:56:23;61.95;;;29.95;;
16845;SDS011;8539;53.188;8.696;2024-03-07T06:58:51;69.38;;;29.90;;
16845;SDS011;8539;53.188;8.696;2024-03-07T07:01:18;54.83;;;30.30;;
16845;SDS011;8539;53.188;8.696;2024-03-07T07:03:47;49.83;;;27.45;;
16845;SDS011;8539;53.188;8.696;2024-03-07T07:06:15;53.70;;;29.05;;
16845;SDS011;8539;53.188;8.696;2024-03-07T07:08:46;52.05;;;27.73;;
16845;SDS011;8539;53.188;8.696;2024-03-07T07:11:13;54.22;;;26.85;;
16845;SDS011;8539;53.188;8.696;2024-03-07T07:13:40;55.30;;;23.55;;
16845;SDS011;8539;53.188;8.696;2024-03-07T07:16:09;47.80;;;24.42;;
16845;SDS011;8539;53.188;8.696;2024-03-07T07:18:36;42.85;;;23.77;;
16845;SDS011;8539;53.188;8.696;2024-03-07T07:21:05;54.08;;;26.08;;
16845;SDS011;8539;53.188;8.696;2024-03-07T07:23:38;54.97;;;27.23;;
16845;SDS011;8539;53.188;8.696;2024-03-07T07:26:05;51.65;;;25.13;;
16845;SDS011;8539;53.188;8.696;2024-03-07T07:28:32;50.08;;;26.50;;
16845;SDS011;8539;53.188;8.696;2024-03-07T07:31:03;55.25;;;26.20;;
16845;SDS011;8539;53.188;8.696;2024-03-07T07:33:31;51.30;;;27.63;;
16845;SDS011;8539;53.188;8.696;2024-03-07T07:35:59;50.40;;;28.80;;
16845;SDS011;8539;53.188;8.696;2024-03-07T07:38:27;49.20;;;25.85;;
16845;SDS011;8539;53.188;8.696;2024-03-07T07:40:54;51.75;;;26.38;;
16845;SDS011;8539;53.188;8.696;2024-03-07T07:43:21;50.85;;;27.08;;
16845;SDS011;8539;53.188;8.696;2024-03-07T07:46:04;51.13;;;26.83;;
16845;SDS011;8539;53.188;8.696;2024-03-07T07:48:31;51.17;;;28.00;;
16845;SDS011;8539;53.188;8.696;2024-03-07T07:50:59;54.83;;;28.48;;
16845;SDS011;8539;53.188;8.696;2024-03-07T07:53:26;48.05;;;26.05;;
16845;SDS011;8539;53.188;8.696;2024-03-07T07:55:53;53.25;;;26.77;;
16845;SDS011;8539;53.188;8.696;2024-03-07T07:58:21;59.70;;;29.73;;
16845;SDS011;8539;53.188;8.696;2024-03-07T08:00:49;64.82;;;32.25;;
16845;SDS011;8539;53.188;8.696;2024-03-07T08:03:16;59.15;;;31.65;;
16845;SDS011;8539;53.188;8.696;2024-03-07T08:05:45;63.15;;;32.38;;
16845;SDS011;8539;53.188;8.696;2024-03-07T08:08:13;66.75;;;33.90;;
16845;SDS011;8539;53.188;8.696;2024-03-07T08:10:43;66.43;;;31.67;;
16845;SDS011;8539;53.188;8.696;2024-03-07T08:13:13;62.60;;;32.15;;
16845;SDS011;8539;53.188;8.696;2024-03-07T08:15:40;60.78;;;32.40;;
16845;SDS011;8539;53.188;8.696;2024-03-07T08:18:08;57.50;;;30.77;;
16845;SDS011;8539;53.188;8.696;2024-03-07T08:20:38;62.22;;;31.08;;
16845;SDS011;8539;53.188;8.696;2024-03-07T08:23:08;60.25;;;30.70;;
16845;SDS011;8539;53.188;8.696;2024-03-07T08:25:36;56.00;;;30.08;;
16845;SDS011;8539;53.188;8.696;2024-03-07T08:28:06;63.08;;;29.83;;
16845;SDS011;8539;53.188;8.696;2024-03-07T08:30:34;61.60;;;30.98;;
16845;SDS011;8539;53.188;8.696;2024-03-07T08:33:04;53.65;;;29.90;;
16845;SDS011;8539;53.188;8.696;2024-03-07T08:35:33;51.80;;;28.60;;
16845;SDS011;8539;53.188;8.696;2024-03-07T08:38:00;58.53;;;31.67;;
16845;SDS011;8539;53.188;8.696;2024-03-07T08:40:28;56.40;;;29.50;;
16845;SDS011;8539;53.188;8.696;2024-03-07T08:43:00;50.75;;;28.30;;
16845;SDS011;8539;53.188;8.696;2024-03-07T08:45:30;56.75;;;29.02;;
16845;SDS011;8539;53.188;8.696;2024-03-07T08:48:01;50.60;;;27.77;;
16845;SDS011;8539;53.188;8.696;2024-03-07T08:50:36;50.63;;;28.80;;
16845;SDS011;8539;53.188;8.696;2024-03-07T08:53:05;46.75;;;27.38;;
16845;SDS011;8539;53.188;8.696;2024-03-07T08:55:33;46.53;;;27.00;;
16845;SDS011;8539;53.188;8.696;2024-03-07T08:58:03;45.88;;;25.88;;
16845;SDS011;8539;53.188;8.696;2024-03-07T09:00:34;43.35;;;26.35;;
16845;SDS011;8539;53.188;8.696;2024-03-07T09:03:05;44.80;;;26.20;;
16845;SDS011;8539;53.188;8.696;2024-03-07T09:05:37;45.17;;;25.90;;
16845;SDS011;8539;53.188;8.696;2024-03-07T09:08:05;47.55;;;28.10;;
16845;SDS011;8539;53.188;8.696;2024-03-07T09:10:33;45.75;;;26.20;;
16845;SDS011;8539;53.188;8.696;2024-03-07T09:13:01;54.40;;;28.45;;
16845;SDS011;8539;53.188;8.696;2024-03-07T09:15:29;53.08;;;27.30;;
16845;SDS011;8539;53.188;8.696;2024-03-07T09:17:56;48.83;;;28.95;;
16845;SDS011;8539;53.188;8.696;2024-03-07T09:20:25;48.10;;;27.05;;
16845;SDS011;8539;53.188;8.696;2024-03-07T09:22:52;44.75;;;26.15;;
16845;SDS011;8539;53.188;8.696;2024-03-07T09:25:22;47.60;;;27.95;;
16845;SDS011;8539;53.188;8.696;2024-03-07T09:27:52;50.72;;;29.20;;
16845;SDS011;8539;53.188;8.696;2024-03-07T09:30:20;45.70;;;25.90;;
16845;SDS011;8539;53.188;8.696;2024-03-07T09:32:53;54.92;;;28.70;;
16845;SDS011;8539;53.188;8.696;2024-03-07T09:35:23;47.50;;;29.15;;
16845;SDS011;8539;53.188;8.696;2024-03-07T09:37:51;49.17;;;27.27;;
16845;SDS011;8539;53.188;8.696;2024-03-07T09:40:18;55.50;;;27.42;;
16845;SDS011;8539;53.188;8.696;2024-03-07T09:42:51;48.00;;;28.33;;
16845;SDS011;8539;53.188;8.696;2024-03-07T09:45:21;46.63;;;28.15;;
16845;SDS011;8539;53.188;8.696;2024-03-07T09:47:53;50.37;;;27.07;;
16845;SDS011;8539;53.188;8.696;2024-03-07T09:50:21;45.22;;;27.65;;
16845;SDS011;8539;53.188;8.696;2024-03-07T09:52:50;48.60;;;27.38;;
16845;SDS011;8539;53.188;8.696;2024-03-07T09:55:21;44.72;;;26.30;;
16845;SDS011;8539;53.188;8.696;2024-03-07T09:57:52;45.30;;;28.13;;
16845;SDS011;8539;53.188;8.696;2024-03-07T10:00:23;44.65;;;26.70;;
16845;SDS011;8539;53.188;8.696;2024-03-07T10:02:59;40.65;;;23.25;;
16845;SDS011;8539;53.188;8.696;2024-03-07T10:05:32;38.40;;;21.70;;
16845;SDS011;8539;53.188;8.696;2024-03-07T10:08:00;44.13;;;23.15;;
16845;SDS011;8539;53.188;8.696;2024-03-07T10:10:28;40.30;;;22.30;;
16845;SDS011;8539;53.188;8.696;2024-03-07T10:12:57;36.50;;;22.77;;
16845;SDS011;8539;53.188;8.696;2024-03-07T10:15:29;40.28;;;22.08;;
16845;SDS011;8539;53.188;8.696;2024-03-07T10:17:58;34.42;;;21.00;;
16845;SDS011;8539;53.188;8.696;2024-03-07T10:20:27;40.67;;;21.63;;
16845;SDS011;8539;53.188;8.696;2024-03-07T10:22:54;32.63;;;18.67;;
16845;SDS011;8539;53.188;8.696;2024-03-07T10:25:23;34.47;;;19.50;;
16845;SDS011;8539;53.188;8.696;2024-03-07T10:27:53;33.05;;;19.67;;
16845;SDS011;8539;53.188;8.696;2024-03-07T10:30:21;33.35;;;20.10;;
16845;SDS011;8539;53.188;8.696;2024-03-07T10:32:56;28.67;;;17.52;;
16845;SDS011;8539;53.188;8.696;2024-03-07T10:35:28;36.75;;;22.42;;
16845;SDS011;8539;53.188;8.696;2024-03-07T10:37:57;40.15;;;21.02;;
16845;SDS011;8539;53.188;8.696;2024-03-07T10:40:28;36.47;;;21.98;;
16845;SDS011;8539;53.188;8.696;2024-03-07T10:42:57;41.78;;;23.83;;
16845;SDS011;8539;53.188;8.696;2024-03-07T10:45:29;38.17;;;23.55;;
16845;SDS011;8539;53.188;8.696;2024-03-07T10:48:01;37.25;;;22.77;;
16845;SDS011;8539;53.188;8.696;2024-03-07T10:53:35;37.90;;;23.70;;
16845;SDS011;8539;53.188;8.696;2024-03-07T11:01:31;38.72;;;22.52;;
16845;SDS011;8539;53.188;8.696;2024-03-07T11:04:00;38.58;;;22.27;;
16845;SDS011;8539;53.188;8.696;2024-03-07T11:06:32;39.83;;;24.90;;
16845;SDS011;8539;53.188;8.696;2024-03-07T11:09:00;40.28;;;24.60;;
16845;SDS011;8539;53.188;8.696;2024-03-07T11:11:40;40.35;;;23.85;;
16845;SDS011;8539;53.188;8.696;2024-03-07T11:14:10;42.73;;;23.40;;
16845;SDS011;8539;53.188;8.696;2024-03-07T11:16:39;42.92;;;24.23;;
16845;SDS011;8539;53.188;8.696;2024-03-07T11:19:17;38.75;;;24.25;;
16845;SDS011;8539;53.188;8.696;2024-03-07T11:21:55;40.22;;;23.48;;
16845;SDS011;8539;53.188;8.696;2024-03-07T11:24:23;40.25;;;22.25;;
16845;SDS011;8539;53.188;8.696;2024-03-07T11:27:02;39.33;;;22.77;;
16845;SDS011;8539;53.188;8.696;2024-03-07T11:29:38;36.80;;;22.83;;
16845;SDS011;8539;53.188;8.696;2024-03-07T11:32:12;35.53;;;22.00;;
16845;SDS011;8539;53.188;8.696;2024-03-07T11:34:41;33.65;;;22.15;;
16845;SDS011;8539;53.188;8.696;2024-03-07T11:37:19;33.67;;;20.58;;
16845;SDS011;8539;53.188;8.696;2024-03-07T11:40:03;34.65;;;21.63;;
16845;SDS011;8539;53.188;8.696;2024-03-07T11:42:47;27.52;;;16.80;;
16845;SDS011;8539;53.188;8.696;2024-03-07T11:45:16;23.90;;;13.35;;
16845;SDS011;8539;53.188;8.696;2024-03-07T11:50:28;21.63;;;12.60;;
16845;SDS011;8539;53.188;8.696;2024-03-07T11:52:56;21.17;;;12.57;;
16845;SDS011;8539;53.188;8.696;2024-03-07T11:55:23;19.13;;;12.10;;
16845;SDS011;8539;53.188;8.696;2024-03-07T11:57:50;17.23;;;11.02;;
16845;SDS011;8539;53.188;8.696;2024-03-07T12:00:18;22.10;;;14.43;;
16845;SDS011;8539;53.188;8.696;2024-03-07T12:02:47;20.52;;;12.00;;
16845;SDS011;8539;53.188;8.696;2024-03-07T12:05:15;19.55;;;12.43;;
16845;SDS011;8539;53.188;8.696;2024-03-07T12:07:43;21.33;;;12.63;;
16845;SDS011;8539;53.188;8.696;2024-03-07T12:10:11;23.13;;;13.55;;
16845;SDS011;8539;53.188;8.696;2024-03-07T12:12:38;17.50;;;10.95;;
16845;SDS011;8539;53.188;8.696;2024-03-07T12:15:06;16.98;;;10.27;;
16845;SDS011;8539;53.188;8.696;2024-03-07T12:17:46;19.95;;;10.98;;
16845;SDS011;8539;53.188;8.696;2024-03-07T12:20:17;22.30;;;10.38;;
16845;SDS011;8539;53.188;8.696;2024-03-07T12:23:01;18.63;;;11.88;;
16845;SDS011;8539;53.188;8.696;2024-03-07T12:25:30;17.00;;;10.82;;
16845;SDS011;8539;53.188;8.696;2024-03-07T12:28:04;18.15;;;10.35;;
16845;SDS011;8539;53.188;8.696;2024-03-07T12:30:47;24.42;;;11.43;;
16845;SDS011;8539;53.188;8.696;2024-03-07T12:33:16;18.92;;;11.35;;
16845;SDS011;8539;53.188;8.696;2024-03-07T12:35:48;20.80;;;12.38;;
16845;SDS011;8539;53.188;8.696;2024-03-07T12:38:17;16.15;;;11.35;;
16845;SDS011;8539;53.188;8.696;2024-03-07T12:40:45;15.57;;;10.75;;
16845;SDS011;8539;53.188;8.696;2024-03-07T12:43:19;19.45;;;11.57;;
16845;SDS011;8539;53.188;8.696;2024-03-07T12:45:48;30.08;;;11.18;;
16845;SDS011;8539;53.188;8.696;2024-03-07T12:48:16;18.65;;;11.30;;
16845;SDS011;8539;53.188;8.696;2024-03-07T12:50:46;16.65;;;10.23;;
16845;SDS011;8539;53.188;8.696;2024-03-07T12:53:14;17.80;;;10.15;;
16845;SDS011;8539;53.188;8.696;2024-03-07T12:55:41;17.92;;;11.57;;
16845;SDS011;8539;53.188;8.696;2024-03-07T12:58:09;18.98;;;10.45;;
16845;SDS011;8539;53.188;8.696;2024-03-07T13:00:39;18.70;;;10.85;;
16845;SDS011;8539;53.188;8.696;2024-03-07T13:03:10;16.98;;;11.02;;
16845;SDS011;8539;53.188;8.696;2024-03-07T13:05:37;16.38;;;11.25;;
16845;SDS011;8539;53.188;8.696;2024-03-07T13:08:07;21.80;;;11.52;;
16845;SDS011;8539;53.188;8.696;2024-03-07T13:10:41;16.55;;;10.75;;
16845;SDS011;8539;53.188;8.696;2024-03-07T13:13:09;19.85;;;10.25;;
16845;SDS011;8539;53.188;8.696;2024-03-07T13:15:38;17.40;;;11.40;;
16845;SDS011;8539;53.188;8.696;2024-03-07T13:18:05;16.65;;;11.52;;
16845;SDS011;8539;53.188;8.696;2024-03-07T13:20:33;14.02;;;9.57;;
16845;SDS011;8539;53.188;8.696;2024-03-07T13:23:01;17.42;;;10.77;;
16845;SDS011;8539;53.188;8.696;2024-03-07T13:25:29;17.98;;;11.55;;
16845;SDS011;8539;53.188;8.696;2024-03-07T13:30:43;18.05;;;11.10;;
16845;SDS011;8539;53.188;8.696;2024-03-07T13:33:15;20.83;;;12.35;;
16845;SDS011;8539;53.188;8.696;2024-03-07T13:35:44;18.23;;;11.50;;
16845;SDS011;8539;53.188;8.696;2024-03-07T13:38:11;18.73;;;12.27;;
16845;SDS011;8539;53.188;8.696;2024-03-07T13:40:39;18.85;;;11.77;;
16845;SDS011;8539;53.188;8.696;2024-03-07T13:43:07;17.33;;;11.88;;
16845;SDS011;8539;53.188;8.696;2024-03-07T13:45:35;23.30;;;13.73;;
16845;SDS011;8539;53.188;8.696;2024-03-07T13:48:06;23.48;;;12.80;;
16845;SDS011;8539;53.188;8.696;2024-03-07T13:50:35;21.25;;;13.13;;
16845;SDS011;8539;53.188;8.696;2024-03-07T13:53:24;26.90;;;12.45;;
16845;SDS011;8539;53.188;8.696;2024-03-07T14:17:58;27.35;;;14.32;;
16845;SDS011;8539;53.188;8.696;2024-03-07T14:32:56;26.15;;;14.15;;
16845;SDS011;8539;53.188;8.696;2024-03-07T14:35:31;23.98;;;14.65;;
16845;SDS011;8539;53.188;8.696;2024-03-07T14:38:23;27.93;;;15.63;;
16845;SDS011;8539;53.188;8.696;2024-03-07T14:41:10;23.35;;;14.18;;
16845;SDS011;8539;53.188;8.696;2024-03-07T14:43:40;25.83;;;14.52;;
16845;SDS011;8539;53.188;8.696;2024-03-07T14:46:10;27.70;;;15.98;;
16845;SDS011;8539;53.188;8.696;2024-03-07T14:48:39;27.60;;;14.75;;
16845;SDS011;8539;53.188;8.696;2024-03-07T14:51:07;36.42;;;16.95;;
16845;SDS011;8539;53.188;8.696;2024-03-07T14:53:36;30.25;;;14.80;;
16845;SDS011;8539;53.188;8.696;2024-03-07T14:56:03;26.45;;;14.90;;
16845;SDS011;8539;53.188;8.696;2024-03-07T14:58:31;23.25;;;14.13;;
16845;SDS011;8539;53.188;8.696;2024-03-07T15:00:58;27.45;;;14.93;;
16845;SDS011;8539;53.188;8.696;2024-03-07T15:03:26;26.75;;;15.30;;
16845;SDS011;8539;53.188;8.696;2024-03-07T15:05:57;23.40;;;14.23;;
16845;SDS011;8539;53.188;8.696;2024-03-07T15:08:26;25.67;;;15.50;;
16845;SDS011;8539;53.188;8.696;2024-03-07T15:10:56;26.63;;;15.20;;
16845;SDS011;8539;53.188;8.696;2024-03-07T15:13:30;29.33;;;16.83;;
16845;SDS011;8539;53.188;8.696;2024-03-07T15:15:57;34.67;;;15.35;;
16845;SDS011;8539;53.188;8.696;2024-03-07T15:18:25;27.63;;;16.17;;
16845;SDS011;8539;53.188;8.696;2024-03-07T15:20:54;26.52;;;15.25;;
16845;SDS011;8539;53.188;8.696;2024-03-07T15:23:21;31.25;;;14.45;;
16845;SDS011;8539;53.188;8.696;2024-03-07T15:25:49;25.85;;;15.43;;
16845;SDS011;8539;53.188;8.696;2024-03-07T15:28:16;26.25;;;14.98;;
16845;SDS011;8539;53.188;8.696;2024-03-07T15:30:43;24.40;;;14.38;;
16845;SDS011;8539;53.188;8.696;2024-03-07T15:33:10;22.42;;;13.45;;